Time,TemperatureF,DewpointF,PressureIn,WindDirection,WindDirectionDegrees,WindSpeedMPH,WindSpeedGustMPH,Humidity,HourlyPrecipIn,Conditions,Clouds,dailyrainin,SoftwareType,DateUTC
2013-01-31 00:00:00,55.1,55.1,29.29,SSW,212,8.0,16.0,100,0.01,,OVC006,0.01,VWS V14.01,2013-01-31 05:00:00,
2013-01-31 00:10:00,54.8,54.8,29.35,SW,215,12.0,19.0,100,0.01,,,0.00,VWS V14.01,2013-01-31 05:10:00,
2013-01-31 00:20:00,54.9,54.9,29.33,East,88,3.0,14.0,100,0.01,,,0.00,VWS V14.01,2013-01-31 05:20:00,
2013-01-31 00:30:00,55.0,55.0,29.33,North,11,4.0,16.0,100,0.01,,,0.00,VWS V14.01,2013-01-31 05:30:00,
2013-01-31 00:40:00,55.0,55.0,29.32,West,259,12.0,20.0,100,0.01,,,0.00,VWS V14.01,2013-01-31 05:40:00,
2013-01-31 00:50:00,55.0,55.0,29.30,SSW,201,8.0,16.0,100,0.00,,,0.00,VWS V14.01,2013-01-31 05:50:00,
2013-01-31 01:00:00,55.2,55.2,29.23,West,263,5.0,17.0,100,0.18,,OVC006,0.18,VWS V14.01,2013-01-31 06:00:00,
2013-01-31 01:01:00,55.1,55.1,29.29,SSW,212,8.0,16.0,100,0.01,,,0.01,VWS V14.01,2013-01-31 06:01:00,
2013-01-31 01:10:00,55.1,55.1,29.27,SSW,212,5.0,17.0,100,0.03,,-RA,0.03,VWS V14.01,2013-01-31 06:10:00,
2013-01-31 01:20:00,55.2,55.2,29.27,South,190,2.0,15.0,100,0.04,,-RA,0.04,VWS V14.01,2013-01-31 06:20:00,
2013-01-31 01:30:00,55.1,55.1,29.26,South,191,5.0,11.0,100,0.08,,-RA,0.08,VWS V14.01,2013-01-31 06:30:00,
2013-01-31 01:40:00,55.2,55.2,29.25,WSW,247,4.0,13.0,100,0.14,,-RA,0.14,VWS V14.01,2013-01-31 06:40:00,
2013-01-31 01:50:00,55.3,55.3,29.24,East,96,5.0,13.0,100,0.16,,-RA,0.16,VWS V14.01,2013-01-31 06:50:00,
2013-01-31 02:00:00,55.7,55.7,29.15,SW,232,4.0,15.0,100,0.07,,OVC006,0.23,VWS V14.01,2013-01-31 07:00:00,
2013-01-31 02:01:00,55.2,55.2,29.23,West,263,5.0,17.0,100,0.18,,-RA,0.18,VWS V14.01,2013-01-31 07:01:00,
2013-01-31 02:10:00,55.2,55.2,29.22,East,90,4.0,17.0,100,0.18,,-RA,0.19,VWS V14.01,2013-01-31 07:10:00,
2013-01-31 02:20:00,55.2,55.2,29.20,SSW,203,4.0,15.0,100,0.17,,-RA,0.20,VWS V14.01,2013-01-31 07:20:00,
2013-01-31 02:30:00,55.3,55.3,29.18,SW,223,6.0,20.0,100,0.17,,-RA,0.21,VWS V14.01,2013-01-31 07:30:00,
2013-01-31 02:40:00,55.3,55.3,29.17,SSE,159,6.0,20.0,100,0.14,,-RA,0.22,VWS V14.01,2013-01-31 07:40:00,
2013-01-31 02:50:00,55.5,55.5,29.17,SE,129,4.0,31.0,100,0.08,,-RA,0.22,VWS V14.01,2013-01-31 07:50:00,
2013-01-31 03:00:00,57.3,57.3,29.04,NW,304,3.0,21.0,100,0.13,,OVC006,0.35,VWS V14.01,2013-01-31 08:00:00,
2013-01-31 03:01:00,55.7,55.7,29.15,SW,232,4.0,15.0,100,0.07,,-RA,0.23,VWS V14.01,2013-01-31 08:01:00,
2013-01-31 03:10:00,55.6,55.6,29.12,South,180,3.0,16.0,100,0.07,,-RA,0.25,VWS V14.01,2013-01-31 08:10:00,
2013-01-31 03:20:00,55.9,55.9,29.10,SW,236,3.0,16.0,100,0.08,,-RA,0.27,VWS V14.01,2013-01-31 08:20:00,
2013-01-31 03:30:00,56.3,56.3,29.09,South,181,8.0,16.0,100,0.09,,-RA,0.29,VWS V14.01,2013-01-31 08:30:00,
2013-01-31 03:40:00,56.9,56.9,29.08,South,179,4.0,25.0,100,0.09,,-RA,0.30,VWS V14.01,2013-01-31 08:40:00,
2013-01-31 03:50:00,57.2,57.2,29.06,South,180,8.0,19.0,100,0.09,,-RA,0.31,VWS V14.01,2013-01-31 08:50:00,
2013-01-31 04:00:00,57.7,57.7,29.02,ESE,121,3.0,24.0,100,0.53,,OVC006,0.84,VWS V14.01,2013-01-31 09:00:00,
2013-01-31 04:01:00,57.3,57.3,29.04,NW,304,3.0,21.0,100,0.13,,-RA,0.35,VWS V14.01,2013-01-31 09:01:00,
2013-01-31 04:10:00,57.3,57.3,29.03,SE,135,3.0,17.0,100,0.21,,-RA,0.44,VWS V14.01,2013-01-31 09:10:00,
2013-01-31 04:20:00,57.2,57.2,29.02,SW,235,5.0,23.0,100,0.29,,-RA,0.54,VWS V14.01,2013-01-31 09:20:00,
2013-01-31 04:30:00,57.2,57.2,29.00,SE,141,3.0,17.0,100,0.38,,-RA,0.65,VWS V14.01,2013-01-31 09:30:00,
2013-01-31 04:40:00,57.1,57.1,28.99,East,98,11.0,15.0,100,0.44,,-RA,0.73,VWS V14.01,2013-01-31 09:40:00,
2013-01-31 04:50:00,57.5,57.5,29.02,WSW,252,6.0,21.0,100,0.53,,-RA,0.83,VWS V14.01,2013-01-31 09:50:00,
2013-01-31 05:00:00,55.1,55.1,29.01,SSE,148,3.0,7.0,100,0.11,,OVC006,0.94,VWS V14.01,2013-01-31 10:00:00,
2013-01-31 05:01:00,57.7,57.7,29.02,ESE,121,3.0,24.0,100,0.53,,-RA,0.84,VWS V14.01,2013-01-31 10:01:00,
2013-01-31 05:10:00,57.1,56.8,29.03,SE,141,3.0,20.0,99,0.49,, +RA,0.84,VWS V14.01,2013-01-31 10:10:00,
2013-01-31 05:20:00,56.5,56.2,29.04,SSW,198,7.0,12.0,99,0.41,, +RA,0.85,VWS V14.01,2013-01-31 10:20:00,
2013-01-31 05:30:00,56.1,55.8,29.03,WSW,247,6.0,13.0,99,0.33,, +RA,0.87,VWS V14.01,2013-01-31 10:30:00,
2013-01-31 05:40:00,55.8,55.5,29.03,SW,235,5.0,14.0,99,0.25,, +RA,0.90,VWS V14.01,2013-01-31 10:40:00,
2013-01-31 05:50:00,55.5,55.5,29.04,SSW,200,2.0,12.0,100,0.19,, +RA,0.92,VWS V14.01,2013-01-31 10:50:00,
2013-01-31 06:00:00,53.6,53.6,28.98,SSW,212,1.0,8.0,100,0.02,,OVC006,0.94,VWS V14.01,2013-01-31 11:00:00,
2013-01-31 06:01:00,55.1,55.1,29.01,SSE,148,3.0,7.0,100,0.11,, +RA,0.94,VWS V14.01,2013-01-31 11:01:00,
2013-01-31 06:10:00,54.8,54.8,29.00,SSW,204,7.0,11.0,100,0.10,,-RA,0.94,VWS V14.01,2013-01-31 11:10:00,
2013-01-31 06:20:00,54.4,54.4,28.98,WSW,257,1.0,10.0,100,0.10,,-RA,0.94,VWS V14.01,2013-01-31 11:20:00,
2013-01-31 06:30:00,53.1,53.1,28.97,SE,125,3.0,12.0,100,0.00,,OVC006,0.94,VWS V14.01,2013-01-31 11:30:00,
2013-01-31 06:31:00,54.2,54.2,28.98,SSW,194,0.0,9.0,100,0.09,,-RA,0.94,VWS V14.01,2013-01-31 11:31:00,
2013-01-31 06:40:00,54.0,54.0,28.99,SW,227,1.0,5.0,100,0.07,,-RA,0.94,VWS V14.01,2013-01-31 11:40:00,
2013-01-31 06:50:00,53.8,53.8,28.98,SE,135,2.0,9.0,100,0.04,,-RA,0.94,VWS V14.01,2013-01-31 11:50:00,
2013-01-31 07:00:00,48.7,47.6,29.01,WNW,284,8.0,19.0,96,0.04,,OVC006,0.98,VWS V14.01,2013-01-31 12:00:00,
2013-01-31 07:01:00,53.6,53.6,28.98,SSW,212,1.0,8.0,100,0.02,,-RA,0.94,VWS V14.01,2013-01-31 12:01:00,
2013-01-31 07:10:00,53.4,53.4,28.98,SW,229,5.0,15.0,100,0.00,,BKN180,0.94,VWS V14.01,2013-01-31 12:10:00,
2013-01-31 07:20:00,53.3,53.3,28.98,South,187,3.0,11.0,100,0.00,,BKN180,0.94,VWS V14.01,2013-01-31 12:20:00,
2013-01-31 07:30:00,44.3,43.5,29.06,WNW,293,2.0,14.0,97,0.07,,OVC006,1.01,VWS V14.01,2013-01-31 12:30:00,
2013-01-31 07:31:00,53.1,53.1,28.97,SE,125,3.0,12.0,100,0.00,,BKN180,0.94,VWS V14.01,2013-01-31 12:31:00,
2013-01-31 07:40:00,53.0,53.0,28.97,SSW,194,4.0,10.0,100,0.01,,BKN180,0.95,VWS V14.01,2013-01-31 12:40:00,
2013-01-31 07:50:00,50.6,49.5,29.00,West,271,8.0,22.0,96,0.04,,BKN180,0.98,VWS V14.01,2013-01-31 12:50:00,
2013-01-31 08:00:00,48.7,47.6,29.01,WNW,284,8.0,19.0,96,0.04,,BKN180,0.98,VWS V14.01,2013-01-31 13:00:00,
2013-01-31 08:10:00,47.7,46.9,29.04,East,84,4.0,13.0,97,0.04,,OVC031,0.98,VWS V14.01,2013-01-31 13:10:00,
2013-01-31 08:20:00,45.6,44.2,29.07,WNW,288,4.0,17.0,95,0.04,,OVC031,0.98,VWS V14.01,2013-01-31 13:20:00,
2013-01-31 08:30:00,44.3,43.5,29.06,WNW,293,2.0,14.0,97,0.07,,OVC031,1.01,VWS V14.01,2013-01-31 13:30:00,
2013-01-31 08:40:00,43.9,43.4,29.06,WNW,297,3.0,9.0,98,0.07,,OVC031,1.01,VWS V14.01,2013-01-31 13:40:00,
2013-01-31 08:50:00,43.3,42.0,29.07,ENE,68,2.0,17.0,95,0.06,,OVC031,1.01,VWS V14.01,2013-01-31 13:50:00,
2013-01-31 09:00:00,44.3,36.9,29.15,SSW,199,3.0,20.0,75,0.00,,OVC006,1.01,VWS V14.01,2013-01-31 14:00:00,
2013-01-31 09:01:00,43.3,39.4,29.08,West,264,2.0,17.0,86,0.03,,OVC031,1.01,VWS V14.01,2013-01-31 14:01:00,
2013-01-31 09:10:00,43.3,38.5,29.09,SW,236,3.0,19.0,83,0.03,,BKN055,1.01,VWS V14.01,2013-01-31 14:10:00,
2013-01-31 09:20:00,43.4,37.3,29.09,NNW,338,7.0,19.0,79,0.03,,BKN055,1.01,VWS V14.01,2013-01-31 14:20:00,
2013-01-31 09:30:00,44.8,34.5,29.19,SW,233,2.0,14.0,67,0.00,,OVC006,1.01,VWS V14.01,2013-01-31 14:30:00,
2013-01-31 09:31:00,43.7,36.6,29.11,West,259,8.0,19.0,76,0.03,,BKN055,1.01,VWS V14.01,2013-01-31 14:31:00,
2013-01-31 09:40:00,44.1,37.0,29.12,WNW,298,4.0,30.0,76,0.00,,BKN055,1.01,VWS V14.01,2013-01-31 14:40:00,
2013-01-31 09:50:00,44.0,36.9,29.14,West,266,4.0,18.0,76,0.00,,BKN055,1.01,VWS V14.01,2013-01-31 14:50:00,
2013-01-31 10:00:00,42.4,31.9,29.22,West,277,6.0,16.0,66,0.00,,OVC006,1.01,VWS V14.01,2013-01-31 15:00:00,
2013-01-31 10:01:00,44.3,36.9,29.15,SSW,199,3.0,20.0,75,0.00,,BKN055,1.01,VWS V14.01,2013-01-31 15:01:00,
2013-01-31 10:10:00,44.4,36.3,29.16,SW,228,4.0,21.0,73,0.00,,BKN120,1.01,VWS V14.01,2013-01-31 15:10:00,
2013-01-31 10:20:00,44.3,34.8,29.18,WNW,290,3.0,18.0,69,0.00,,BKN120,1.01,VWS V14.01,2013-01-31 15:20:00,
2013-01-31 10:30:00,44.8,34.5,29.19,SW,233,2.0,14.0,67,0.00,,BKN120,1.01,VWS V14.01,2013-01-31 15:30:00,
2013-01-31 10:40:00,44.1,34.2,29.19,WNW,295,3.0,15.0,68,0.00,,BKN120,1.01,VWS V14.01,2013-01-31 15:40:00,
2013-01-31 10:50:00,43.7,33.8,29.20,WNW,283,3.0,13.0,68,0.00,,BKN120,1.01,VWS V14.01,2013-01-31 15:50:00,
2013-01-31 11:00:00,41.5,28.3,29.24,West,280,4.0,17.0,59,0.00,,OVC006,1.01,VWS V14.01,2013-01-31 16:00:00,
2013-01-31 11:01:00,42.4,31.9,29.22,West,277,6.0,16.0,66,0.00,,BKN120,1.01,VWS V14.01,2013-01-31 16:01:00,
2013-01-31 11:10:00,42.9,31.2,29.22,WNW,289,8.0,21.0,63,0.00,,-RA,1.01,VWS V14.01,2013-01-31 16:10:00,
2013-01-31 11:20:00,42.6,30.9,29.22,West,276,2.0,15.0,63,0.00,,-RA,1.01,VWS V14.01,2013-01-31 16:20:00,
2013-01-31 11:30:00,42.7,26.3,29.26,SW,231,5.0,18.0,52,0.00,,OVC006,1.01,VWS V14.01,2013-01-31 16:30:00,
2013-01-31 11:31:00,41.9,29.5,29.22,WNW,301,5.0,16.0,61,0.00,,-RA,1.01,VWS V14.01,2013-01-31 16:31:00,
2013-01-31 11:40:00,41.5,28.3,29.22,WNW,291,2.0,12.0,59,0.00,,-RA,1.01,VWS V14.01,2013-01-31 16:40:00,
2013-01-31 11:50:00,41.4,27.8,29.23,NNW,328,2.0,15.0,58,0.00,,-RA,1.01,VWS V14.01,2013-01-31 16:50:00,
2013-01-31 12:00:00,42.6,24.3,29.27,WNW,286,5.0,14.0,48,0.00,,OVC006,1.01,VWS V14.01,2013-01-31 17:00:00,
2013-01-31 12:01:00,41.5,28.3,29.24,West,280,4.0,17.0,59,0.00,,-RA,1.01,VWS V14.01,2013-01-31 17:01:00,
2013-01-31 12:10:00,41.5,28.3,29.24,NNW,334,3.0,17.0,59,0.00,,SCT055,1.01,VWS V14.01,2013-01-31 17:10:00,
2013-01-31 12:20:00,42.1,26.2,29.25,WNW,287,6.0,16.0,53,0.00,,SCT055,1.01,VWS V14.01,2013-01-31 17:20:00,
2013-01-31 12:30:00,40.3,22.2,29.28,West,274,7.0,16.0,48,0.00,,OVC006,1.01,VWS V14.01,2013-01-31 17:30:00,
2013-01-31 12:31:00,42.7,26.3,29.26,SW,231,5.0,18.0,52,0.00,,SCT055,1.01,VWS V14.01,2013-01-31 17:31:00,
2013-01-31 12:40:00,42.7,25.4,29.26,WNW,285,6.0,14.0,50,0.00,,SCT055,1.01,VWS V14.01,2013-01-31 17:40:00,
2013-01-31 12:50:00,42.3,25.5,29.27,NNW,329,2.0,15.0,51,0.00,,SCT055,1.01,VWS V14.01,2013-01-31 17:50:00,
2013-01-31 13:00:00,41.1,22.4,29.29,WSW,245,3.0,19.0,47,0.00,,OVC006,1.01,VWS V14.01,2013-01-31 18:00:00,
2013-01-31 13:01:00,42.6,24.3,29.27,WNW,286,5.0,14.0,48,0.00,,SCT055,1.01,VWS V14.01,2013-01-31 18:01:00,
2013-01-31 13:10:00,41.3,22.6,29.28,SSW,203,6.0,19.0,47,0.00,,BKN065,1.01,VWS V14.01,2013-01-31 18:10:00,
2013-01-31 13:20:00,41.2,23.0,29.27,NW,307,4.0,14.0,48,0.00,,BKN065,1.01,VWS V14.01,2013-01-31 18:20:00,
2013-01-31 13:30:00,38.9,20.4,29.32,NNW,339,6.0,18.0,47,0.00,,OVC006,1.01,VWS V14.01,2013-01-31 18:30:00,
2013-01-31 13:31:00,40.3,22.2,29.28,West,274,7.0,16.0,48,0.00,,BKN065,1.01,VWS V14.01,2013-01-31 18:31:00,
2013-01-31 13:40:00,40.3,22.7,29.28,North,349,3.0,13.0,49,0.00,,BKN065,1.01,VWS V14.01,2013-01-31 18:40:00,
2013-01-31 13:50:00,40.1,22.0,29.29,WNW,294,8.0,12.0,48,0.00,,BKN065,1.01,VWS V14.01,2013-01-31 18:50:00,
2013-01-31 14:00:00,41.1,22.4,29.29,WSW,245,3.0,19.0,47,0.00,,BKN065,1.01,VWS V14.01,2013-01-31 19:00:00,
2013-01-31 14:10:00,40.9,20.7,29.30,NW,323,7.0,16.0,44,0.00,,SCT070,1.01,VWS V14.01,2013-01-31 19:10:00,
2013-01-31 14:20:00,39.7,21.1,29.31,WNW,283,2.0,20.0,47,0.00,,SCT070,1.01,VWS V14.01,2013-01-31 19:20:00,
2013-01-31 14:30:00,39.5,19.9,29.35,SSW,211,3.0,14.0,45,0.00,,OVC006,1.01,VWS V14.01,2013-01-31 19:30:00,
2013-01-31 14:31:00,38.9,20.4,29.32,NNW,339,6.0,18.0,47,0.00,,SCT070,1.01,VWS V14.01,2013-01-31 19:31:00,
2013-01-31 14:40:00,38.8,21.3,29.33,West,270,8.0,15.0,49,0.00,,SCT070,1.01,VWS V14.01,2013-01-31 19:40:00,
2013-01-31 14:50:00,39.3,20.8,29.33,West,277,6.0,15.0,47,0.00,,SCT070,1.01,VWS V14.01,2013-01-31 19:50:00,
2013-01-31 15:00:00,37.7,20.3,29.37,NW,319,7.0,16.0,49,0.00,,OVC006,1.01,VWS V14.01,2013-01-31 20:00:00,
2013-01-31 15:10:00,40.7,21.0,29.34,SW,218,5.0,19.0,45,0.00,,BKN090,1.01,VWS V14.01,2013-01-31 20:10:00,
2013-01-31 15:20:00,40.6,20.9,29.34,WNW,290,10.0,17.0,45,0.00,,BKN090,1.01,VWS V14.01,2013-01-31 20:20:00,
2013-01-31 15:30:00,37.4,19.0,29.39,SSW,193,13.0,16.0,47,0.00,,OVC006,1.01,VWS V14.01,2013-01-31 20:30:00,
2013-01-31 15:31:00,39.5,19.9,29.35,SSW,211,3.0,14.0,45,0.00,,BKN090,1.01,VWS V14.01,2013-01-31 20:31:00,
2013-01-31 15:40:00,38.4,20.4,29.36,WSW,253,6.0,12.0,48,0.00,,BKN090,1.01,VWS V14.01,2013-01-31 20:40:00,
2013-01-31 15:50:00,37.9,20.0,29.36,NNW,327,6.0,11.0,48,0.00,,BKN090,1.01,VWS V14.01,2013-01-31 20:50:00,
2013-01-31 16:00:00,35.5,17.3,29.42,West,276,5.0,14.0,47,0.00,,OVC006,1.01,VWS V14.01,2013-01-31 21:00:00,
2013-01-31 16:01:00,37.7,20.3,29.37,NW,319,7.0,16.0,49,0.00,,BKN090,1.01,VWS V14.01,2013-01-31 21:01:00,
2013-01-31 16:10:00,38.2,19.8,29.37,WSW,240,3.0,16.0,47,0.00,,SCT085,1.01,VWS V14.01,2013-01-31 21:10:00,
2013-01-31 16:20:00,38.3,18.8,29.38,West,270,8.0,23.0,45,0.00,,SCT085,1.01,VWS V14.01,2013-01-31 21:20:00,
2013-01-31 16:30:00,34.9,16.2,29.44,NNW,327,8.0,14.0,46,0.00,,OVC006,1.01,VWS V14.01,2013-01-31 21:30:00,
2013-01-31 16:31:00,37.4,19.0,29.39,SSW,193,13.0,16.0,47,0.00,,SCT085,1.01,VWS V14.01,2013-01-31 21:31:00,
2013-01-31 16:40:00,36.5,18.7,29.40,NW,318,7.0,20.0,48,0.00,,SCT085,1.01,VWS V14.01,2013-01-31 21:40:00,
2013-01-31 16:50:00,35.8,18.5,29.41,WNW,297,3.0,15.0,49,0.00,,SCT085,1.01,VWS V14.01,2013-01-31 21:50:00,
2013-01-31 17:00:00,35.5,17.3,29.42,West,276,5.0,14.0,47,0.00,,SCT085,1.01,VWS V14.01,2013-01-31 22:00:00,
2013-01-31 17:10:00,35.2,17.0,29.42,WSW,248,1.0,14.0,47,0.00,,BKN070,1.01,VWS V14.01,2013-01-31 22:10:00,
2013-01-31 17:20:00,35.1,16.9,29.43,WNW,291,1.0,16.0,47,0.00,,BKN070,1.01,VWS V14.01,2013-01-31 22:20:00,
2013-01-31 17:30:00,32.1,20.6,29.50,WNW,296,5.0,12.0,62,0.00,,OVC006,1.01,VWS V14.01,2013-01-31 22:30:00,
2013-01-31 17:31:00,34.9,16.2,29.44,NNW,327,8.0,14.0,46,0.00,,BKN070,1.01,VWS V14.01,2013-01-31 22:31:00,
2013-01-31 17:40:00,34.5,15.4,29.45,WNW,289,8.0,19.0,45,0.00,,BKN070,1.01,VWS V14.01,2013-01-31 22:40:00,
2013-01-31 17:50:00,34.0,15.9,29.45,NW,325,4.0,15.0,47,0.00,,BKN070,1.01,VWS V14.01,2013-01-31 22:50:00,
2013-01-31 18:00:00,30.6,18.4,29.52,WNW,287,5.0,13.0,60,0.00,,OVC006,1.01,VWS V14.01,2013-01-31 23:00:00,
2013-01-31 18:01:00,33.7,17.0,29.47,NW,312,2.0,10.0,50,0.00,,BKN070,1.01,VWS V14.01,2013-01-31 23:01:00,
2013-01-31 18:10:00,33.3,19.7,29.48,NW,312,1.0,16.0,57,0.00,,SCT075,1.01,VWS V14.01,2013-01-31 23:10:00,
2013-01-31 18:20:00,32.6,21.0,29.49,NNW,330,5.0,15.0,62,0.00,,SCT075,1.01,VWS V14.01,2013-01-31 23:20:00,
2013-01-31 18:30:00,30.2,17.6,29.53,West,270,4.0,12.0,59,0.00,,OVC006,1.01,VWS V14.01,2013-01-31 23:30:00,
2013-01-31 18:31:00,32.1,20.6,29.50,WNW,296,5.0,12.0,62,0.00,,SCT075,1.01,VWS V14.01,2013-01-31 23:31:00,
2013-01-31 18:40:00,31.8,19.5,29.51,SSW,205,6.0,13.0,60,0.00,,SCT075,1.01,VWS V14.01,2013-01-31 23:40:00,
2013-01-31 18:50:00,31.1,18.9,29.51,NW,309,2.0,15.0,60,0.00,,SCT075,1.01,VWS V14.01,2013-01-31 23:50:00,
2013-01-31 19:00:00,30.6,18.4,29.52,WNW,287,5.0,13.0,60,0.00,,SCT075,1.01,VWS V14.01,2013-02-01 00:00:00,
2013-01-31 19:10:00,30.3,17.7,29.52,West,269,6.0,14.0,59,0.00,,SCT085,1.01,VWS V14.01,2013-02-01 00:10:00,
2013-01-31 19:20:00,30.2,17.6,29.53,SSW,210,11.0,15.0,59,0.00,,SCT085,1.01,VWS V14.01,2013-02-01 00:20:00,
2013-01-31 19:30:00,28.6,14.9,29.56,SW,233,4.0,13.0,56,0.00,,OVC006,1.01,VWS V14.01,2013-02-01 00:30:00,
2013-01-31 19:31:00,30.2,17.6,29.53,West,270,4.0,12.0,59,0.00,,SCT085,1.01,VWS V14.01,2013-02-01 00:31:00,
2013-01-31 19:40:00,30.2,17.6,29.54,West,276,2.0,13.0,59,0.00,,SCT085,1.01,VWS V14.01,2013-02-01 00:40:00,
2013-01-31 19:50:00,29.8,18.0,29.54,SW,221,7.0,11.0,61,0.00,,SCT085,1.01,VWS V14.01,2013-02-01 00:50:00,
2013-01-31 20:00:00,28.4,14.3,29.57,SW,228,8.0,12.0,55,0.00,,OVC006,1.01,VWS V14.01,2013-02-01 01:00:00,
2013-01-31 20:01:00,29.4,16.9,29.55,WSW,245,4.0,13.0,59,0.00,,SCT085,1.01,VWS V14.01,2013-02-01 01:01:00,
2013-01-31 20:10:00,29.1,16.2,29.55,WSW,256,3.0,12.0,58,0.00,,SCT085,1.01,VWS V14.01,2013-02-01 01:10:00,
2013-01-31 20:20:00,28.8,15.5,29.55,NNE,16,5.0,11.0,57,0.00,,SCT085,1.01,VWS V14.01,2013-02-01 01:20:00,
2013-01-31 20:30:00,28.2,12.9,29.58,West,267,3.0,11.0,52,0.00,,OVC006,1.01,VWS V14.01,2013-02-01 01:30:00,
2013-01-31 20:31:00,28.6,14.9,29.56,SW,233,4.0,13.0,56,0.00,,SCT085,1.01,VWS V14.01,2013-02-01 01:31:00,
2013-01-31 20:40:00,28.5,15.2,29.56,West,272,4.0,12.0,57,0.00,,SCT085,1.01,VWS V14.01,2013-02-01 01:40:00,
2013-01-31 20:50:00,28.5,14.4,29.56,SW,215,2.0,15.0,55,0.00,,SCT085,1.01,VWS V14.01,2013-02-01 01:50:00,
2013-01-31 21:00:00,28.4,14.3,29.57,SW,228,8.0,12.0,55,0.00,,SCT085,1.01,VWS V14.01,2013-02-01 02:00:00,
2013-01-31 21:10:00,28.3,13.8,29.57,WSW,257,4.0,10.0,54,0.00,,FEW080,1.01,VWS V14.01,2013-02-01 02:10:00,
2013-01-31 21:20:00,28.3,13.4,29.57,NNE,16,3.0,12.0,53,0.00,,FEW080,1.01,VWS V14.01,2013-02-01 02:20:00,
2013-01-31 21:30:00,27.6,13.6,29.59,WSW,252,5.0,9.0,55,0.00,,OVC006,1.01,VWS V14.01,2013-02-01 02:30:00,
2013-01-31 21:31:00,28.2,12.9,29.58,West,267,3.0,11.0,52,0.00,,FEW080,1.01,VWS V14.01,2013-02-01 02:31:00,
2013-01-31 21:40:00,28.2,12.4,29.58,SW,232,4.0,13.0,51,0.00,,FEW080,1.01,VWS V14.01,2013-02-01 02:40:00,
2013-01-31 21:50:00,28.1,12.3,29.59,WNW,302,6.0,18.0,51,0.00,,FEW080,1.01,VWS V14.01,2013-02-01 02:50:00,
2013-01-31 22:00:00,27.6,17.0,29.60,SW,219,3.0,14.0,64,0.00,,OVC006,1.01,VWS V14.01,2013-02-01 03:00:00,
2013-01-31 22:01:00,28.0,12.7,29.59,WNW,283,6.0,12.0,52,0.00,,FEW080,1.01,VWS V14.01,2013-02-01 03:01:00,
2013-01-31 22:10:00,27.9,13.0,29.59,SW,222,2.0,11.0,53,0.00,,SCT080,1.01,VWS V14.01,2013-02-01 03:10:00,
2013-01-31 22:20:00,27.8,13.3,29.59,WSW,253,4.0,13.0,54,0.00,,SCT080,1.01,VWS V14.01,2013-02-01 03:20:00,
2013-01-31 22:30:00,27.6,13.6,29.59,WSW,252,5.0,9.0,55,0.00,,SCT080,1.01,VWS V14.01,2013-02-01 03:30:00,
2013-01-31 22:40:00,27.7,14.1,29.59,WSW,240,4.0,12.0,56,0.00,,SCT080,1.01,VWS V14.01,2013-02-01 03:40:00,
2013-01-31 22:50:00,27.8,15.0,29.59,West,277,8.0,9.0,58,0.00,,SCT080,1.01,VWS V14.01,2013-02-01 03:50:00,
2013-01-31 23:00:00,25.1,18.0,29.62,WNW,291,1.0,12.0,74,0.00,,OVC006,0.00,VWS V14.01,2013-02-01 04:00:00,
2013-01-31 23:01:00,27.6,17.0,29.60,SW,219,3.0,14.0,64,0.00,,SCT080,1.01,VWS V14.01,2013-02-01 04:01:00,
2013-01-31 23:10:00,26.9,18.8,29.61,WNW,288,3.0,12.0,71,0.00,,SCT080,1.01,VWS V14.01,2013-02-01 04:10:00,
2013-01-31 23:20:00,26.3,19.5,29.60,SW,229,9.0,12.0,75,0.00,,SCT080,1.01,VWS V14.01,2013-02-01 04:20:00,
2013-01-31 23:30:00,25.9,19.4,29.61,SSW,205,3.0,14.0,76,0.00,,SCT080,1.01,VWS V14.01,2013-02-01 04:30:00,
2013-01-31 23:40:00,25.5,19.3,29.61,West,265,4.0,11.0,77,0.00,,SCT080,1.01,VWS V14.01,2013-02-01 04:40:00,
2013-01-31 23:50:00,25.2,18.7,29.62,SSW,211,8.0,8.0,76,0.00,,SCT080,1.01,VWS V14.01,2013-02-01 04:50:00,